Time;durP1;ratioP1;P1;durP2;ratioP2;P2;SDS_P1;SDS_P2;PMS_P1;PMS_P2;Temp;Humidity;BMP_temperature;BMP_pressure;BME280_temperature;BME280_humidity;BME280_pressure;Samples;Min_cycle;Max_cycle;Signal;HPM_P1;HPM_P2
2023/01/26 06:42:35;;;;;;;;;;;19.30;51.70;;;;;;7749719;23;20002;-70
2023/01/26 06:46:11;;;;;;;;;;;19.30;52.60;;;;;;7722337;22;19915;-69
2023/01/26 06:49:12;;;;;;;;;;;19.30;51.90;;;;;;7722070;23;19915;-69
2023/01/26 06:52:19;;;;;;;;;;;19.30;52.10;;;;;;7748950;23;19973;-69
2023/01/26 06:55:42;;;;;;;;;;;19.30;52.00;;;;;;7749535;22;20247;-69
2023/01/26 06:58:43;;;;;;;;;;;19.30;52.00;;;;;;7749085;23;19998;-69
2023/01/26 07:01:47;;;;;;;;;;;19.30;52.00;;;;;;7725856;23;20234;-67
2023/01/26 07:04:48;;;;;;;;;;;19.30;52.10;;;;;;7751847;23;19903;-68
2023/01/26 07:07:49;;;;;;;;;;;19.20;51.90;;;;;;7751113;22;19908;-68
2023/01/26 07:10:49;;;;;;;;;;;19.20;51.70;;;;;;7751172;23;19907;-70
2023/01/26 07:13:50;;;;;;;;;;;19.20;51.70;;;;;;7724459;23;19903;-68
2023/01/26 07:16:51;;;;;;;;;;;19.20;51.70;;;;;;7751189;22;19903;-69
2023/01/26 07:19:51;;;;;;;;;;;19.20;51.70;;;;;;7751143;23;19996;-69
2023/01/26 07:22:52;;;;;;;;;;;19.20;52.40;;;;;;7724329;23;19910;-69
2023/01/26 07:25:52;;;;;;;;;;;19.20;51.70;;;;;;7750838;22;19957;-69
2023/01/26 07:28:53;;;;;;;;;;;19.20;51.70;;;;;;7751518;23;19904;-69
2023/01/26 07:31:54;;;;;;;;;;;19.20;51.70;;;;;;7751014;23;19915;-68
2023/01/26 07:34:54;;;;;;;;;;;19.20;51.60;;;;;;7750978;23;20329;-69
2023/01/26 07:37:57;;;;;;;;;;;19.30;51.70;;;;;;7750937;22;19949;-69
2023/01/26 07:40:57;;;;;;;;;;;19.30;51.70;;;;;;7724471;23;19910;-69
2023/01/26 07:43:58;;;;;;;;;;;19.20;51.50;;;;;;7751730;23;19904;-69
2023/01/26 07:46:59;;;;;;;;;;;19.20;51.60;;;;;;7724627;23;20658;-68
2023/01/26 07:49:59;;;;;;;;;;;19.30;51.60;;;;;;7751065;23;19904;-68
2023/01/26 07:53:00;;;;;;;;;;;19.20;51.50;;;;;;7751161;23;19930;-69
2023/01/26 07:56:13;;;;;;;;;;;19.20;51.50;;;;;;7723591;22;19910;-69
2023/01/26 07:59:14;;;;;;;;;;;19.20;51.50;;;;;;7750295;23;19986;-68
2023/01/26 08:02:14;;;;;;;;;;;19.20;51.50;;;;;;7751240;23;19904;-68
2023/01/26 08:05:15;;;;;;;;;;;19.20;51.60;;;;;;7750568;23;19907;-68
2023/01/26 08:08:16;;;;;;;;;;;19.20;51.50;;;;;;7751202;22;19908;-68
2023/01/26 08:11:22;;;;;;;;;;;19.20;51.50;;;;;;7750746;23;19903;-68
2023/01/26 08:14:22;;;;;;;;;;;19.20;51.50;;;;;;7751157;23;19904;-69
2023/01/26 08:17:23;;;;;;;;;;;19.20;51.50;;;;;;7750441;22;20216;-69
2023/01/26 08:20:23;;;;;;;;;;;19.20;51.50;;;;;;7750863;23;19907;-69
2023/01/26 08:23:24;;;;;;;;;;;19.20;51.50;;;;;;7723359;23;19914;-70
2023/01/26 08:26:25;;;;;;;;;;;19.20;51.50;;;;;;7750099;22;19907;-69
2023/01/26 08:29:25;;;;;;;;;;;19.20;51.40;;;;;;7750652;23;20282;-69
2023/01/26 08:32:28;;;;;;;;;;;19.20;51.40;;;;;;7750431;23;19998;-69
2023/01/26 08:35:29;;;;;;;;;;;19.20;51.50;;;;;;7750441;22;20356;-69
2023/01/26 08:38:30;;;;;;;;;;;19.30;51.60;;;;;;7750259;23;19958;-69
2023/01/26 08:41:32;;;;;;;;;;;19.20;51.50;;;;;;7750386;23;19904;-68
2023/01/26 08:44:32;;;;;;;;;;;19.20;51.50;;;;;;7723497;23;19908;-69
2023/01/26 08:47:33;;;;;;;;;;;19.20;51.50;;;;;;7723673;23;19957;-69
2023/01/26 08:50:33;;;;;;;;;;;19.20;51.50;;;;;;7750507;23;19904;-69
2023/01/26 08:53:36;;;;;;;;;;;19.20;51.50;;;;;;7750332;23;19908;-69
2023/01/26 08:56:36;;;;;;;;;;;19.20;51.50;;;;;;7723678;23;19912;-68
2023/01/26 08:59:37;;;;;;;;;;;19.20;51.50;;;;;;7723521;23;19911;-68
2023/01/26 09:02:37;;;;;;;;;;;19.20;51.50;;;;;;7750972;23;19907;-68
2023/01/26 09:05:38;;;;;;;;;;;19.20;51.50;;;;;;7749957;22;19939;-68
2023/01/26 09:08:40;;;;;;;;;;;19.20;51.50;;;;;;7750597;23;19908;-68
2023/01/26 09:11:40;;;;;;;;;;;19.20;51.40;;;;;;7750440;23;19931;-69
2023/01/26 09:14:41;;;;;;;;;;;19.20;51.50;;;;;;7750676;23;19978;-68
2023/01/26 09:17:42;;;;;;;;;;;19.20;51.40;;;;;;7723048;23;19982;-68
2023/01/26 09:20:43;;;;;;;;;;;19.20;51.50;;;;;;7750449;23;19908;-72
2023/01/26 09:23:43;;;;;;;;;;;19.20;51.50;;;;;;7723438;23;19908;-70
2023/01/26 09:26:44;;;;;;;;;;;19.20;51.50;;;;;;7750187;22;19904;-69
2023/01/26 09:29:44;;;;;;;;;;;19.20;51.50;;;;;;7749989;23;19907;-69
2023/01/26 09:32:46;;;;;;;;;;;19.20;51.50;;;;;;7750540;23;19916;-70
2023/01/26 09:35:47;;;;;;;;;;;19.20;51.50;;;;;;7723252;22;19914;-70
2023/01/26 09:38:49;;;;;;;;;;;19.20;51.40;;;;;;7749723;23;20025;-70
2023/01/26 09:42:03;;;;;;;;;;;19.20;51.60;;;;;;7749681;23;20239;-70
2023/01/26 09:45:13;;;;;;;;;;;19.20;51.40;;;;;;7749924;23;19910;-70
2023/01/26 09:48:19;;;;;;;;;;;19.20;51.40;;;;;;7752501;22;19910;-71
2023/01/26 09:51:34;;;;;;;;;;;19.30;51.70;;;;;;7752020;23;20323;-71
2023/01/26 09:54:38;;;;;;;;;;;19.30;51.70;;;;;;7752136;23;20379;-70
2023/01/26 09:57:42;;;;;;;;;;;19.30;51.60;;;;;;7752165;22;19904;-70
2023/01/26 10:00:45;;;;;;;;;;;19.30;51.50;;;;;;7752293;23;19998;-70
2023/01/26 10:03:49;;;;;;;;;;;19.30;52.30;;;;;;7752194;23;19911;-71
2023/01/26 10:06:52;;;;;;;;;;;19.30;51.60;;;;;;7751602;22;20474;-70
2023/01/26 10:09:53;;;;;;;;;;;19.30;51.60;;;;;;7725358;23;19955;-70
2023/01/26 10:12:54;;;;;;;;;;;19.30;51.60;;;;;;7724967;23;20305;-70
2023/01/26 10:16:00;;;;;;;;;;;19.20;51.50;;;;;;7751945;22;19914;-72
2023/01/26 10:19:03;;;;;;;;;;;19.30;51.60;;;;;;7724943;23;19909;-70
2023/01/26 10:22:06;;;;;;;;;;;19.30;51.70;;;;;;7751603;23;20355;-70
2023/01/26 10:25:15;;;;;;;;;;;19.20;51.30;;;;;;7751473;23;19974;-70
2023/01/26 10:28:16;;;;;;;;;;;19.20;51.20;;;;;;7751277;22;19930;-70
2023/01/26 10:31:21;;;;;;;;;;;19.20;50.70;;;;;;7751427;23;19915;-70
2023/01/26 10:34:23;;;;;;;;;;;19.20;50.80;;;;;;7751002;23;19957;-70
2023/01/26 10:37:28;;;;;;;;;;;19.20;51.10;;;;;;7724300;23;19908;-70
2023/01/26 10:40:29;;;;;;;;;;;19.20;51.10;;;;;;7751757;23;19907;-70
2023/01/26 10:43:34;;;;;;;;;;;19.20;51.80;;;;;;7724197;23;19911;-70
2023/01/26 10:46:39;;;;;;;;;;;19.20;51.20;;;;;;7724453;23;19911;-70
2023/01/26 10:49:40;;;;;;;;;;;19.20;51.20;;;;;;7751177;23;19947;-70
2023/01/26 10:52:57;;;;;;;;;;;19.20;51.20;;;;;;7751734;23;20318;-70
2023/01/26 10:56:04;;;;;;;;;;;19.20;51.20;;;;;;7721212;22;19911;-70
2023/01/26 10:59:07;;;;;;;;;;;19.20;51.20;;;;;;7751384;23;19915;-70
2023/01/26 11:02:11;;;;;;;;;;;19.20;51.30;;;;;;7723889;23;19934;-70
2023/01/26 11:05:11;;;;;;;;;;;19.20;51.20;;;;;;7751475;23;19904;-70
2023/01/26 11:08:32;;;;;;;;;;;19.20;51.20;;;;;;7751006;22;20231;-70
2023/01/26 11:11:32;;;;;;;;;;;19.20;51.30;;;;;;7750996;23;20623;-70
2023/01/26 11:14:34;;;;;;;;;;;19.20;51.30;;;;;;7751110;23;19962;-70
2023/01/26 11:17:43;;;;;;;;;;;19.20;51.30;;;;;;7750668;22;19907;-71
2023/01/26 11:20:51;;;;;;;;;;;19.20;51.30;;;;;;7750187;23;20323;-69
2023/01/26 11:23:52;;;;;;;;;;;19.20;51.40;;;;;;7749547;23;19930;-70
2023/01/26 11:27:11;;;;;;;;;;;19.20;51.40;;;;;;7750316;22;19942;-70
2023/01/26 11:30:21;;;;;;;;;;;19.10;49.50;;;;;;7750931;23;19983;-69
2023/01/26 11:33:32;;;;;;;;;;;19.10;48.20;;;;;;7750622;23;19987;-69
2023/01/26 11:36:35;;;;;;;;;;;19.10;47.10;;;;;;7744318;22;19904;-70
2023/01/26 11:39:36;;;;;;;;;;;19.10;47.40;;;;;;7723696;23;20113;-69
2023/01/26 11:42:42;;;;;;;;;;;19.20;48.20;;;;;;7750895;23;19907;-69
2023/01/26 11:45:46;;;;;;;;;;;19.20;48.70;;;;;;7750359;22;20008;-69
2023/01/26 11:48:55;;;;;;;;;;;19.20;48.90;;;;;;7750323;23;19908;-69
2023/01/26 11:52:08;;;;;;;;;;;19.20;49.20;;;;;;7723458;23;19983;-69
2023/01/26 11:55:29;;;;;;;;;;;19.20;49.20;;;;;;7721027;23;20641;-70
2023/01/26 11:58:34;;;;;;;;;;;19.20;49.40;;;;;;7749298;23;19918;-69
2023/01/26 12:01:40;;;;;;;;;;;19.20;49.60;;;;;;7722144;23;19969;-69
2023/01/26 12:04:44;;;;;;;;;;;19.20;49.70;;;;;;7750113;23;19903;-70
2023/01/26 12:07:53;;;;;;;;;;;19.20;49.70;;;;;;7750770;22;19907;-68
2023/01/26 12:11:21;;;;;;;;;;;19.20;49.80;;;;;;7751021;23;19910;-68
2023/01/26 12:14:21;;;;;;;;;;;19.20;49.80;;;;;;7751426;23;19904;-68
2023/01/26 12:17:22;;;;;;;;;;;19.20;49.90;;;;;;7750474;22;19916;-68
2023/01/26 12:20:34;;;;;;;;;;;19.20;50.00;;;;;;7751218;23;19942;-69
2023/01/26 12:23:56;;;;;;;;;;;19.20;50.10;;;;;;7722999;23;20319;-70
2023/01/26 12:26:57;;;;;;;;;;;19.20;50.10;;;;;;7724510;23;20270;-70
2023/01/26 12:30:05;;;;;;;;;;;19.20;50.20;;;;;;7749306;23;19954;-70
2023/01/26 12:33:07;;;;;;;;;;;19.20;50.90;;;;;;7748875;23;19916;-69
2023/01/26 12:36:19;;;;;;;;;;;19.20;50.30;;;;;;7749085;22;19911;-70
2023/01/26 12:39:19;;;;;;;;;;;19.20;50.30;;;;;;7722294;23;19911;-69
2023/01/26 12:42:20;;;;;;;;;;;19.20;50.40;;;;;;7720291;23;20342;-69
2023/01/26 12:45:24;;;;;;;;;;;19.20;50.40;;;;;;7747491;22;19903;-68
2023/01/26 12:48:33;;;;;;;;;;;19.20;49.80;;;;;;7721720;23;20335;-70
2023/01/26 12:51:42;;;;;;;;;;;19.20;50.00;;;;;;7746998;23;19931;-70
2023/01/26 12:54:45;;;;;;;;;;;19.20;50.00;;;;;;7748051;23;19911;-69
2023/01/26 12:57:51;;;;;;;;;;;19.20;50.30;;;;;;7747933;22;19918;-69
2023/01/26 13:00:59;;;;;;;;;;;19.20;50.00;;;;;;7720379;23;19908;-69
2023/01/26 13:04:03;;;;;;;;;;;19.20;50.20;;;;;;7747891;23;19907;-69
2023/01/26 13:07:24;;;;;;;;;;;19.20;50.20;;;;;;7747928;22;19907;-69
2023/01/26 13:10:26;;;;;;;;;;;19.20;50.30;;;;;;7748258;23;19911;-69
2023/01/26 13:13:31;;;;;;;;;;;19.20;50.40;;;;;;7747628;23;19926;-69
2023/01/26 13:16:33;;;;;;;;;;;19.20;50.40;;;;;;7747681;22;20208;-69
2023/01/26 13:19:34;;;;;;;;;;;19.20;50.50;;;;;;7748261;23;20026;-69
2023/01/26 13:22:35;;;;;;;;;;;19.20;50.50;;;;;;7749105;23;19957;-69
2023/01/26 13:25:36;;;;;;;;;;;19.20;50.60;;;;;;7728847;22;19915;-69
2023/01/26 13:28:36;;;;;;;;;;;19.20;50.60;;;;;;7739390;23;20322;-70
2023/01/26 13:31:37;;;;;;;;;;;19.20;50.60;;;;;;7726066;23;19916;-69
2023/01/26 13:34:45;;;;;;;;;;;19.20;50.70;;;;;;7750131;23;19904;-69
2023/01/26 13:37:51;;;;;;;;;;;19.30;50.60;;;;;;7750467;22;20347;-69
2023/01/26 13:40:52;;;;;;;;;;;19.30;50.10;;;;;;7749812;23;19958;-69
2023/01/26 13:44:03;;;;;;;;;;;19.30;49.90;;;;;;7722968;23;19954;-69
2023/01/26 13:47:09;;;;;;;;;;;19.40;50.40;;;;;;7750305;22;19908;-69
2023/01/26 13:50:28;;;;;;;;;;;19.40;49.70;;;;;;7750380;23;19930;-69
2023/01/26 13:53:35;;;;;;;;;;;19.40;49.80;;;;;;7722530;23;19927;-69
2023/01/26 13:56:40;;;;;;;;;;;19.40;49.60;;;;;;7749903;22;19915;-69
2023/01/26 13:59:47;;;;;;;;;;;19.40;49.60;;;;;;7722891;23;19990;-69
2023/01/26 14:02:50;;;;;;;;;;;19.40;49.60;;;;;;7749686;23;19911;-69
2023/01/26 14:05:52;;;;;;;;;;;19.40;49.70;;;;;;7750192;22;19915;-69
2023/01/26 14:08:54;;;;;;;;;;;19.50;49.90;;;;;;7750087;23;19915;-69
2023/01/26 14:11:57;;;;;;;;;;;19.40;50.00;;;;;;7749592;23;19994;-69
2023/01/26 14:15:02;;;;;;;;;;;19.40;50.00;;;;;;7750287;23;19982;-69
2023/01/26 14:18:04;;;;;;;;;;;19.40;50.80;;;;;;7749900;22;19915;-68
2023/01/26 14:21:13;;;;;;;;;;;19.40;50.20;;;;;;7749432;23;19914;-69
2023/01/26 14:24:13;;;;;;;;;;;19.40;50.40;;;;;;7723042;23;19914;-69
2023/01/26 14:27:28;;;;;;;;;;;19.40;50.40;;;;;;7714136;23;19908;-69
2023/01/26 14:30:33;;;;;;;;;;;19.40;50.40;;;;;;7749588;23;20238;-69
2023/01/26 14:33:35;;;;;;;;;;;19.40;50.40;;;;;;7723903;23;19903;-69
2023/01/26 14:36:38;;;;;;;;;;;19.40;50.40;;;;;;7749511;22;20400;-69
2023/01/26 14:39:41;;;;;;;;;;;19.40;50.40;;;;;;7749633;23;19930;-70
2023/01/26 14:42:42;;;;;;;;;;;19.40;50.40;;;;;;7749119;23;19904;-69
2023/01/26 14:45:46;;;;;;;;;;;19.40;50.50;;;;;;7723231;22;19914;-69
2023/01/26 14:48:55;;;;;;;;;;;19.40;50.50;;;;;;7722395;23;19910;-69
2023/01/26 14:51:57;;;;;;;;;;;19.40;50.50;;;;;;7749279;23;19934;-69
2023/01/26 14:55:02;;;;;;;;;;;19.40;50.40;;;;;;7750336;23;20512;-69
2023/01/26 14:58:11;;;;;;;;;;;19.40;50.40;;;;;;7749596;22;20251;-69
2023/01/26 15:01:19;;;;;;;;;;;19.40;50.50;;;;;;7749136;23;19940;-69
2023/01/26 15:04:23;;;;;;;;;;;19.40;50.60;;;;;;7749499;23;19904;-69
2023/01/26 15:07:34;;;;;;;;;;;19.40;50.60;;;;;;7749443;22;19943;-69
2023/01/26 15:14:37;;;;;;;;;;;19.30;50.70;;;;;;7697659;23;19911;-69
2023/01/26 15:17:38;;;;;;;;;;;19.40;50.70;;;;;;7722604;23;19907;-69
2023/01/26 15:20:42;;;;;;;;;;;19.40;50.70;;;;;;7749322;23;20515;-69
2023/01/26 15:23:44;;;;;;;;;;;19.40;50.60;;;;;;7748009;23;19904;-69
2023/01/26 15:26:45;;;;;;;;;;;19.40;50.70;;;;;;7749245;22;19903;-69
2023/01/26 15:29:46;;;;;;;;;;;19.40;50.70;;;;;;7748801;23;19914;-69
2023/01/26 15:32:46;;;;;;;;;;;19.40;50.80;;;;;;7748237;23;19926;-69
2023/01/26 15:35:56;;;;;;;;;;;19.40;50.70;;;;;;7722362;22;19935;-69
2023/01/26 15:39:12;;;;;;;;;;;19.40;50.80;;;;;;7748062;23;19918;-69
2023/01/26 15:42:14;;;;;;;;;;;19.40;50.80;;;;;;7748367;23;20311;-69
2023/01/26 15:45:19;;;;;;;;;;;19.40;50.80;;;;;;7749108;23;19903;-69
2023/01/26 15:48:21;;;;;;;;;;;19.40;50.80;;;;;;7749498;23;19903;-69
2023/01/26 15:51:21;;;;;;;;;;;19.40;50.80;;;;;;7748196;23;19969;-69
2023/01/26 15:54:22;;;;;;;;;;;19.40;50.80;;;;;;7748721;23;19904;-69
2023/01/26 15:57:22;;;;;;;;;;;19.40;50.80;;;;;;7748974;22;20301;-69
2023/01/26 16:00:23;;;;;;;;;;;19.40;50.90;;;;;;7747813;23;19907;-69
2023/01/26 16:03:23;;;;;;;;;;;19.40;50.90;;;;;;7721265;23;19904;-68
2023/01/26 16:06:25;;;;;;;;;;;19.40;50.90;;;;;;7721436;23;19903;-69
2023/01/26 16:09:26;;;;;;;;;;;19.40;50.90;;;;;;7748340;23;19904;-68
2023/01/26 16:12:26;;;;;;;;;;;19.40;50.90;;;;;;7748609;23;20251;-69
2023/01/26 16:15:37;;;;;;;;;;;19.40;50.80;;;;;;7721348;22;19904;-69
2023/01/26 16:18:38;;;;;;;;;;;19.40;50.80;;;;;;7721242;23;20337;-69
2023/01/26 16:21:38;;;;;;;;;;;19.40;50.70;;;;;;7725340;23;19903;-69
2023/01/26 16:24:39;;;;;;;;;;;19.40;50.70;;;;;;7746565;23;19908;-69
2023/01/26 16:27:39;;;;;;;;;;;19.40;50.70;;;;;;7721610;23;19904;-68
2023/01/26 16:30:42;;;;;;;;;;;19.40;50.70;;;;;;7747878;23;19938;-69
2023/01/26 16:33:43;;;;;;;;;;;19.40;50.70;;;;;;7748290;23;19911;-69
2023/01/26 16:36:43;;;;;;;;;;;19.40;50.70;;;;;;7748645;22;19930;-69
2023/01/26 16:39:44;;;;;;;;;;;19.50;50.80;;;;;;7748197;23;19907;-69
2023/01/26 16:42:49;;;;;;;;;;;19.50;50.80;;;;;;7720582;23;19903;-69
2023/01/26 16:45:51;;;;;;;;;;;19.50;50.80;;;;;;7721263;22;20026;-69
2023/01/26 16:48:51;;;;;;;;;;;19.40;50.70;;;;;;7748278;23;20254;-69
2023/01/26 16:51:52;;;;;;;;;;;19.50;50.80;;;;;;7721047;23;19915;-69
2023/01/26 16:54:53;;;;;;;;;;;19.40;50.80;;;;;;7720908;23;19980;-69
2023/01/26 16:57:54;;;;;;;;;;;19.40;50.90;;;;;;7748905;22;19903;-69
2023/01/26 17:00:55;;;;;;;;;;;19.40;50.90;;;;;;7747685;23;19958;-69
2023/01/26 17:03:55;;;;;;;;;;;19.40;50.80;;;;;;7748083;23;19904;-69
2023/01/26 17:06:56;;;;;;;;;;;19.40;50.80;;;;;;7748435;22;19991;-69
2023/01/26 17:09:56;;;;;;;;;;;19.40;50.70;;;;;;7721473;23;20298;-69
2023/01/26 17:12:57;;;;;;;;;;;19.50;50.90;;;;;;7747750;23;20393;-69
2023/01/26 17:15:58;;;;;;;;;;;19.40;50.80;;;;;;7748851;22;19907;-69
2023/01/26 17:18:58;;;;;;;;;;;19.50;50.90;;;;;;7721764;23;20053;-69
2023/01/26 17:21:59;;;;;;;;;;;19.40;50.80;;;;;;7745991;23;19942;-69
2023/01/26 17:24:59;;;;;;;;;;;19.50;50.90;;;;;;7746062;23;19903;-68
2023/01/26 17:28:00;;;;;;;;;;;19.50;50.90;;;;;;7718793;23;19939;-69
2023/01/26 17:31:05;;;;;;;;;;;19.50;50.90;;;;;;7745284;23;19915;-69
2023/01/26 17:34:06;;;;;;;;;;;19.40;50.80;;;;;;7745728;23;19904;-69
2023/01/26 17:37:07;;;;;;;;;;;19.50;51.00;;;;;;7719326;23;19935;-68
2023/01/26 17:40:09;;;;;;;;;;;19.50;51.00;;;;;;7746467;23;19998;-70
2023/01/26 17:43:09;;;;;;;;;;;19.40;51.00;;;;;;7746733;23;19907;-70
2023/01/26 17:46:13;;;;;;;;;;;19.40;51.00;;;;;;7746967;22;19950;-69
2023/01/26 17:49:13;;;;;;;;;;;19.40;51.00;;;;;;7719887;23;19952;-70
2023/01/26 17:52:14;;;;;;;;;;;19.40;51.00;;;;;;7745940;23;19903;-71
2023/01/26 17:55:15;;;;;;;;;;;19.40;51.10;;;;;;7719704;23;19908;-70
2023/01/26 17:58:15;;;;;;;;;;;19.40;51.10;;;;;;7746949;22;20041;-68
2023/01/26 18:01:16;;;;;;;;;;;19.40;51.10;;;;;;7744841;23;19935;-71
2023/01/26 18:04:17;;;;;;;;;;;19.40;51.10;;;;;;7747901;23;19907;-70
2023/01/26 18:07:17;;;;;;;;;;;19.40;51.10;;;;;;7721499;23;19983;-70
2023/01/26 18:10:18;;;;;;;;;;;19.40;51.20;;;;;;7749245;23;19912;-71
2023/01/26 18:13:19;;;;;;;;;;;19.40;51.20;;;;;;7748649;23;19931;-70
2023/01/26 18:16:20;;;;;;;;;;;19.40;51.10;;;;;;7722143;22;19930;-70
2023/01/26 18:19:20;;;;;;;;;;;19.40;51.20;;;;;;7749472;23;19908;-70
2023/01/26 18:22:21;;;;;;;;;;;19.40;51.20;;;;;;7748986;23;20238;-70
2023/01/26 18:25:22;;;;;;;;;;;19.40;51.20;;;;;;7722469;22;19907;-70
2023/01/26 18:28:23;;;;;;;;;;;19.40;51.20;;;;;;7749632;23;19907;-70
2023/01/26 18:31:25;;;;;;;;;;;19.40;51.20;;;;;;7721301;23;19924;-70
2023/01/26 18:34:25;;;;;;;;;;;19.30;51.10;;;;;;7748895;23;20506;-71
2023/01/26 18:37:26;;;;;;;;;;;19.40;51.20;;;;;;7722234;23;19930;-71
2023/01/26 18:40:27;;;;;;;;;;;19.30;51.10;;;;;;7749321;23;19919;-71
2023/01/26 18:43:31;;;;;;;;;;;19.40;51.20;;;;;;7749262;23;20216;-70
2023/01/26 18:46:31;;;;;;;;;;;19.30;51.20;;;;;;7721938;23;19907;-70
2023/01/26 18:49:32;;;;;;;;;;;19.30;51.20;;;;;;7748703;23;19915;-71
2023/01/26 18:52:33;;;;;;;;;;;19.40;51.20;;;;;;7748076;23;19903;-70
2023/01/26 18:55:33;;;;;;;;;;;19.40;51.30;;;;;;7721694;22;19978;-71
2023/01/26 18:58:34;;;;;;;;;;;19.30;51.20;;;;;;7721438;23;20323;-70
2023/01/26 19:01:36;;;;;;;;;;;19.40;51.20;;;;;;7748310;23;19907;-70
2023/01/26 19:04:36;;;;;;;;;;;19.40;51.20;;;;;;7748646;23;19966;-70
2023/01/26 19:07:37;;;;;;;;;;;19.40;51.20;;;;;;7749129;22;19986;-70
2023/01/26 19:10:38;;;;;;;;;;;19.40;51.20;;;;;;7748416;23;19915;-69
2023/01/26 19:13:41;;;;;;;;;;;19.40;51.20;;;;;;7748213;23;19911;-70
2023/01/26 19:16:42;;;;;;;;;;;19.40;51.10;;;;;;7749272;22;19973;-70
2023/01/26 19:19:44;;;;;;;;;;;19.40;51.10;;;;;;7722633;23;19908;-73
2023/01/26 19:22:45;;;;;;;;;;;19.40;51.20;;;;;;7722752;23;19935;-71
2023/01/26 19:25:45;;;;;;;;;;;19.40;51.20;;;;;;7722758;22;19987;-70
2023/01/26 19:28:46;;;;;;;;;;;19.40;51.30;;;;;;7722470;23;19914;-71
2023/01/26 19:31:47;;;;;;;;;;;19.40;51.20;;;;;;7722468;23;20370;-71
2023/01/26 19:34:47;;;;;;;;;;;19.30;51.20;;;;;;7721848;23;19918;-71
2023/01/26 19:37:48;;;;;;;;;;;19.30;51.20;;;;;;7722171;23;19908;-71
2023/01/26 19:40:49;;;;;;;;;;;19.40;51.20;;;;;;7722489;23;19923;-71
2023/01/26 19:43:50;;;;;;;;;;;19.30;51.10;;;;;;7722413;23;19991;-71
2023/01/26 19:46:52;;;;;;;;;;;19.30;51.20;;;;;;7721867;23;19904;-71
2023/01/26 19:49:53;;;;;;;;;;;19.30;51.20;;;;;;7749499;23;20439;-69
2023/01/26 19:52:53;;;;;;;;;;;19.30;51.20;;;;;;7749613;23;19911;-71
2023/01/26 19:55:54;;;;;;;;;;;19.30;51.20;;;;;;7721880;22;19907;-71
2023/01/26 19:58:56;;;;;;;;;;;19.30;51.20;;;;;;7749019;23;19908;-71
2023/01/26 20:01:56;;;;;;;;;;;19.30;51.20;;;;;;7748762;23;20304;-71
2023/01/26 20:04:57;;;;;;;;;;;19.30;51.20;;;;;;7749660;23;19915;-71
2023/01/26 20:07:57;;;;;;;;;;;19.30;51.20;;;;;;7748905;22;19904;-70
2023/01/26 20:11:02;;;;;;;;;;;19.30;51.20;;;;;;7749583;23;19958;-71
2023/01/26 20:14:04;;;;;;;;;;;19.30;51.20;;;;;;7749145;23;19990;-71
2023/01/26 20:17:05;;;;;;;;;;;19.30;51.20;;;;;;7721706;23;20363;-71
2023/01/26 20:20:06;;;;;;;;;;;19.30;51.20;;;;;;7721860;23;19998;-71
2023/01/26 20:23:06;;;;;;;;;;;19.30;51.20;;;;;;7749066;23;19979;-71
2023/01/26 20:26:08;;;;;;;;;;;19.30;51.20;;;;;;7748442;22;19903;-71
2023/01/26 20:29:10;;;;;;;;;;;19.30;51.20;;;;;;7721876;23;19979;-70
2023/01/26 20:32:11;;;;;;;;;;;19.30;51.20;;;;;;7721657;23;19926;-71
2023/01/26 20:35:12;;;;;;;;;;;19.30;51.20;;;;;;7748627;23;19904;-71
2023/01/26 20:38:13;;;;;;;;;;;19.30;51.20;;;;;;7748241;22;19984;-71
2023/01/26 20:41:15;;;;;;;;;;;19.30;51.20;;;;;;7721595;23;19958;-71
2023/01/26 20:44:16;;;;;;;;;;;19.30;51.20;;;;;;7721478;23;19904;-71
2023/01/26 20:47:16;;;;;;;;;;;19.30;51.20;;;;;;7748593;22;19973;-71
2023/01/26 20:50:17;;;;;;;;;;;19.30;51.20;;;;;;7748258;23;19907;-71
2023/01/26 20:53:18;;;;;;;;;;;19.30;51.30;;;;;;7748745;23;19908;-71
2023/01/26 20:56:20;;;;;;;;;;;19.30;51.30;;;;;;7747826;22;19904;-70
2023/01/26 20:59:21;;;;;;;;;;;19.30;51.30;;;;;;7748305;23;19994;-71
2023/01/26 21:02:22;;;;;;;;;;;19.30;51.30;;;;;;7721700;23;19931;-70
2023/01/26 21:05:22;;;;;;;;;;;19.30;51.30;;;;;;7721529;22;20469;-70
2023/01/26 21:08:24;;;;;;;;;;;19.30;51.30;;;;;;7747928;23;19908;-70
2023/01/26 21:11:26;;;;;;;;;;;19.30;51.30;;;;;;7748268;23;19938;-70
2023/01/26 21:14:26;;;;;;;;;;;19.30;51.30;;;;;;7748057;23;19907;-70
2023/01/26 21:17:27;;;;;;;;;;;19.30;52.00;;;;;;7721284;23;19970;-71
2023/01/26 21:20:27;;;;;;;;;;;19.30;51.30;;;;;;7721302;23;20328;-71
2023/01/26 21:23:28;;;;;;;;;;;19.30;51.30;;;;;;7748497;23;20473;-71
2023/01/26 21:26:29;;;;;;;;;;;19.30;51.30;;;;;;7747960;22;19918;-70
2023/01/26 21:29:29;;;;;;;;;;;19.30;51.30;;;;;;7747915;23;19907;-71
2023/01/26 21:32:30;;;;;;;;;;;19.30;51.30;;;;;;7721500;23;19960;-71
2023/01/26 21:35:30;;;;;;;;;;;19.20;51.20;;;;;;7748660;22;19994;-71
2023/01/26 21:38:32;;;;;;;;;;;19.20;51.20;;;;;;7748460;23;19907;-71
2023/01/26 21:48:30;;;;;;;;;;;19.30;51.30;;;;;;7750364;22;19908;-71
2023/01/26 21:54:50;;;;;;;;;;;19.30;51.30;;;;;;7750293;23;19986;-71
2023/01/26 22:01:11;;;;;;;;;;;19.30;51.30;;;;;;7750363;23;20238;-70
2023/01/26 22:04:19;;;;;;;;;;;19.20;51.20;;;;;;7750785;23;19911;-70
2023/01/26 22:07:19;;;;;;;;;;;19.30;51.30;;;;;;7750960;22;20029;-71
2023/01/26 22:10:22;;;;;;;;;;;19.30;51.20;;;;;;7724481;23;19904;-71
2023/01/26 22:13:23;;;;;;;;;;;19.30;51.30;;;;;;7723542;23;20254;-71
2023/01/26 22:16:24;;;;;;;;;;;19.30;51.30;;;;;;7722818;23;19904;-70
2023/01/26 22:19:25;;;;;;;;;;;19.30;51.30;;;;;;7723355;23;20439;-71
2023/01/26 22:22:25;;;;;;;;;;;19.20;51.20;;;;;;7750176;23;19958;-70
2023/01/26 22:25:26;;;;;;;;;;;19.20;51.20;;;;;;7722857;22;19904;-71
2023/01/26 22:28:26;;;;;;;;;;;19.20;51.20;;;;;;7749472;23;19911;-71
2023/01/26 22:31:27;;;;;;;;;;;19.30;51.30;;;;;;7723258;23;19920;-71
2023/01/26 22:34:28;;;;;;;;;;;19.30;51.30;;;;;;7750225;23;19904;-70
2023/01/26 22:37:29;;;;;;;;;;;19.30;51.30;;;;;;7750119;22;19931;-71
2023/01/26 22:40:30;;;;;;;;;;;19.30;51.30;;;;;;7749513;23;20247;-71
2023/01/26 22:43:31;;;;;;;;;;;19.30;51.30;;;;;;7749988;23;20514;-71
2023/01/26 22:46:32;;;;;;;;;;;19.30;51.30;;;;;;7749740;22;19908;-70
2023/01/26 22:49:33;;;;;;;;;;;19.30;51.30;;;;;;7749681;23;20254;-71
2023/01/26 22:52:33;;;;;;;;;;;19.20;51.20;;;;;;7722785;23;19998;-71
2023/01/26 22:55:37;;;;;;;;;;;19.30;51.20;;;;;;7723004;22;20227;-71
2023/01/26 22:58:38;;;;;;;;;;;19.20;51.20;;;;;;7749241;23;19911;-71
2023/01/26 23:01:38;;;;;;;;;;;19.20;51.20;;;;;;7749570;23;19911;-71
2023/01/26 23:04:39;;;;;;;;;;;19.20;51.20;;;;;;7722849;23;20290;-71
2023/01/26 23:07:40;;;;;;;;;;;19.20;51.20;;;;;;7722542;23;19904;-69
2023/01/26 23:10:40;;;;;;;;;;;19.20;51.20;;;;;;7722584;23;19958;-70
2023/01/26 23:13:41;;;;;;;;;;;19.20;51.20;;;;;;7749442;23;19949;-71
2023/01/26 23:16:42;;;;;;;;;;;19.20;51.20;;;;;;7722470;23;19904;-71
2023/01/26 23:19:42;;;;;;;;;;;19.20;51.20;;;;;;7749176;23;19908;-70
2023/01/26 23:22:43;;;;;;;;;;;19.30;51.30;;;;;;7749214;23;19903;-71
2023/01/26 23:25:50;;;;;;;;;;;19.20;51.20;;;;;;7749756;22;19930;-70
2023/01/26 23:28:50;;;;;;;;;;;19.20;51.20;;;;;;7722123;23;19939;-70
2023/01/26 23:31:51;;;;;;;;;;;19.20;51.20;;;;;;7749409;23;20308;-70
2023/01/26 23:34:51;;;;;;;;;;;19.20;51.30;;;;;;7722353;23;19907;-69
2023/01/26 23:37:52;;;;;;;;;;;19.20;51.30;;;;;;7749163;22;19944;-71
2023/01/26 23:40:52;;;;;;;;;;;19.20;51.20;;;;;;7748805;23;19907;-72
2023/01/26 23:43:54;;;;;;;;;;;19.20;51.20;;;;;;7722078;23;19904;-71
2023/01/26 23:46:54;;;;;;;;;;;19.20;51.30;;;;;;7749296;22;19935;-71
2023/01/26 23:49:55;;;;;;;;;;;19.20;51.20;;;;;;7748836;23;19975;-71
2023/01/26 23:52:55;;;;;;;;;;;19.20;51.20;;;;;;7748458;23;19989;-70
2023/01/26 23:55:57;;;;;;;;;;;19.20;51.30;;;;;;7749107;22;19985;-71
2023/01/26 23:58:58;;;;;;;;;;;19.20;51.30;;;;;;7749190;23;19962;-71
